createdAt,value
2023-01-13T00:03:31.837Z,4.35
2023-01-13T00:09:23.967Z,4.40
2023-01-13T00:15:16.999Z,3.83
2023-01-13T00:21:17.128Z,2.22
2023-01-13T00:27:09.943Z,3.28
2023-01-13T00:33:02.756Z,3.47
2023-01-13T00:38:55.147Z,3.55
2023-01-13T00:44:48.085Z,5.15
2023-01-13T00:50:41.312Z,4.90
2023-01-13T00:56:40.202Z,4.78
2023-01-13T01:02:32.928Z,2.05
2023-01-13T01:08:24.896Z,4.55
2023-01-13T01:14:17.007Z,4.80
2023-01-13T01:20:09.698Z,3.80
2023-01-13T01:26:12.036Z,5.00
2023-01-13T01:32:05.139Z,4.07
2023-01-13T01:37:58.226Z,5.72
2023-01-13T01:44:00.021Z,2.35
2023-01-13T01:49:53.572Z,4.00
2023-01-13T01:55:46.292Z,3.83
2023-01-13T02:01:41.959Z,4.57
2023-01-13T02:07:37.175Z,4.03
2023-01-13T02:13:31.285Z,4.95
2023-01-13T02:20:02.548Z,4.10
2023-01-13T02:25:57.795Z,1.95
2023-01-13T02:31:52.433Z,18.98
2023-01-13T02:37:45.480Z,3.40
2023-01-13T02:43:58.877Z,3.30
2023-01-13T02:49:57.829Z,3.05
2023-01-13T02:55:54.105Z,3.30
2023-01-13T03:01:48.073Z,3.13
2023-01-13T03:08:15.912Z,4.43
2023-01-13T03:14:27.403Z,2.90
2023-01-13T03:20:27.850Z,1.90
2023-01-13T03:26:35.081Z,4.75
2023-01-13T03:32:42.929Z,3.90
2023-01-13T03:38:58.813Z,2.45
2023-01-13T03:45:18.100Z,3.25
2023-01-13T03:51:16.523Z,4.03
2023-01-13T03:57:14.180Z,4.10
2023-01-13T04:03:23.579Z,3.35
2023-01-13T04:09:39.518Z,2.75
2023-01-13T04:15:39.517Z,3.53
2023-01-13T04:21:34.543Z,1.98
2023-01-13T04:27:28.147Z,2.70
2023-01-13T04:33:21.305Z,1.70
2023-01-13T04:39:13.613Z,1.75
2023-01-13T04:45:07.428Z,2.25
2023-01-13T04:50:59.193Z,2.57
2023-01-13T04:56:51.488Z,1.75
2023-01-13T05:02:43.808Z,2.50
2023-01-13T05:08:36.636Z,3.10
2023-01-13T05:14:48.367Z,3.15
2023-01-13T05:20:40.746Z,3.55
2023-01-13T05:26:34.632Z,2.58
2023-01-13T05:32:28.311Z,5.63
2023-01-13T05:38:21.040Z,2.38
2023-01-13T05:44:14.767Z,3.85
2023-01-13T05:50:08.481Z,3.42
2023-01-13T05:56:05.329Z,4.63
2023-01-13T06:01:57.204Z,2.47
2023-01-13T06:07:49.903Z,1.80
2023-01-13T06:13:43.285Z,1.83
2023-01-13T06:19:36.289Z,3.28
2023-01-13T06:25:28.963Z,5.05
2023-01-13T06:31:22.330Z,2.47
2023-01-13T06:37:20.152Z,0.80
2023-01-13T06:43:16.684Z,2.78
2023-01-13T06:49:10.996Z,2.78
2023-01-13T06:55:04.402Z,2.80
2023-01-13T07:06:53.119Z,1.75
2023-01-13T07:13:05.697Z,1.73
2023-01-13T07:19:00.120Z,2.80
2023-01-13T07:24:53.132Z,2.88
2023-01-13T07:30:45.957Z,3.63
2023-01-13T07:36:39.435Z,3.10
2023-01-13T07:42:50.865Z,2.47
2023-01-13T07:48:43.131Z,2.42
2023-01-13T07:54:40.914Z,5.85
2023-01-13T08:00:34.225Z,3.90
2023-01-13T08:06:27.501Z,4.93
2023-01-13T08:12:38.298Z,1.98
2023-01-13T08:18:33.332Z,5.85
2023-01-13T08:24:26.328Z,5.32
2023-01-13T08:30:26.221Z,5.15
2023-01-13T08:36:19.219Z,5.20
2023-01-13T08:42:12.334Z,3.80
2023-01-13T08:48:05.760Z,4.63
2023-01-13T08:54:00.205Z,2.63
2023-01-13T08:59:53.309Z,2.13
2023-01-13T09:05:47.262Z,1.90
2023-01-13T09:12:02.108Z,2.63
2023-01-13T09:17:55.582Z,3.28
2023-01-13T09:23:48.589Z,2.95
2023-01-13T09:29:42.029Z,2.22
2023-01-13T09:35:36.733Z,3.92
2023-01-13T09:41:49.968Z,3.95
2023-01-13T09:47:56.153Z,2.20
2023-01-13T09:54:00.869Z,3.63
2023-01-13T09:59:53.206Z,2.30
2023-01-13T10:05:56.666Z,8.00
2023-01-13T10:12:09.536Z,5.82
2023-01-13T10:18:12.449Z,4.57
2023-01-13T10:24:27.530Z,2.88
2023-01-13T10:30:24.338Z,5.47
2023-01-13T10:36:21.718Z,4.78
2023-01-13T10:42:22.340Z,3.42
2023-01-13T10:48:15.282Z,2.40
2023-01-13T10:54:13.268Z,3.27
2023-01-13T11:00:06.336Z,4.55
2023-01-13T11:06:00.556Z,3.63
2023-01-13T11:11:57.061Z,3.15
2023-01-13T11:18:01.649Z,5.30
2023-01-13T11:24:11.631Z,1.80
2023-01-13T11:30:21.008Z,5.53
2023-01-13T11:36:23.749Z,4.22
2023-01-13T11:42:25.611Z,3.10
2023-01-13T11:48:23.050Z,2.53
2023-01-13T11:54:47.424Z,2.55
2023-01-13T12:01:00.903Z,3.70
2023-01-13T12:07:22.987Z,2.25
2023-01-13T12:13:30.889Z,2.58
2023-01-13T12:19:30.250Z,4.03
2023-01-13T12:25:37.690Z,10.63
2023-01-13T12:31:32.254Z,4.10
2023-01-13T12:37:50.349Z,5.18
2023-01-13T12:44:07.298Z,5.47
2023-01-13T12:50:25.017Z,6.50
2023-01-13T12:56:40.299Z,3.53
2023-01-13T13:02:39.488Z,2.33
2023-01-13T13:08:56.514Z,7.03
2023-01-13T13:14:49.035Z,7.28
2023-01-13T13:21:09.025Z,4.53
2023-01-13T13:28:06.112Z,3.10
2023-01-13T13:34:17.649Z,7.30
2023-01-13T13:40:30.414Z,4.03
2023-01-13T13:46:47.569Z,6.13
2023-01-13T13:53:03.017Z,7.20
2023-01-13T13:58:56.648Z,6.13
2023-01-13T14:04:51.261Z,8.02
2023-01-13T14:10:46.545Z,12.23
2023-01-13T14:16:40.767Z,3.90
2023-01-13T14:22:33.331Z,5.18
2023-01-13T14:28:32.642Z,5.60
2023-01-13T14:34:31.720Z,5.25
2023-01-13T14:40:37.281Z,7.85
2023-01-13T14:46:43.347Z,10.27
2023-01-13T14:52:58.367Z,5.32
2023-01-13T14:58:51.864Z,18.67
2023-01-13T15:10:55.675Z,8.05
2023-01-13T15:16:48.644Z,15.13
2023-01-13T15:22:42.547Z,10.35
2023-01-13T15:28:34.985Z,8.57
2023-01-13T15:34:27.584Z,8.93
2023-01-13T15:40:31.131Z,15.00
2023-01-13T15:46:43.584Z,12.33
2023-01-13T15:52:36.027Z,17.80
2023-01-13T15:58:30.855Z,25.17
2023-01-13T16:04:23.361Z,19.77
2023-01-13T16:10:26.203Z,17.23
2023-01-13T16:16:24.842Z,18.52
2023-01-13T16:22:18.289Z,18.58
2023-01-13T16:28:23.033Z,22.42
2023-01-13T16:34:15.426Z,20.85
2023-01-13T16:40:21.733Z,21.77
2023-01-13T16:46:21.645Z,31.95
2023-01-13T16:52:14.672Z,34.78
2023-01-13T16:58:20.974Z,28.25
2023-01-13T17:04:20.298Z,28.38
2023-01-13T17:10:23.030Z,29.83
2023-01-13T17:16:26.454Z,28.73
2023-01-13T17:22:23.295Z,32.20
2023-01-13T17:28:15.757Z,37.25
2023-01-13T17:34:11.020Z,23.70
2023-01-13T17:40:05.804Z,21.88
2023-01-13T17:46:00.489Z,24.70
2023-01-13T17:51:55.443Z,22.67
2023-01-13T17:57:47.962Z,22.52
2023-01-13T18:03:41.779Z,26.70
2023-01-13T18:09:34.755Z,33.28
2023-01-13T18:15:27.914Z,34.00
2023-01-13T18:21:42.415Z,29.00
2023-01-13T18:27:38.655Z,45.00
2023-01-13T18:33:30.762Z,34.30
2023-01-13T18:39:23.838Z,30.20
2023-01-13T18:45:29.410Z,42.83
2023-01-13T18:51:21.910Z,48.40
2023-01-13T18:57:16.453Z,55.95
2023-01-13T19:09:11.190Z,31.65
2023-01-13T19:15:04.785Z,33.15
2023-01-13T19:21:01.752Z,34.33
2023-01-13T19:26:55.046Z,32.58
2023-01-13T19:32:47.859Z,35.28
2023-01-13T19:38:40.878Z,30.60
2023-01-13T19:44:52.714Z,29.60
2023-01-13T19:50:45.511Z,32.33
2023-01-13T19:56:39.124Z,27.48
2023-01-13T20:02:32.748Z,31.37
2023-01-13T20:08:27.223Z,28.08
2023-01-13T20:14:21.566Z,20.80
2023-01-13T20:20:16.064Z,29.23
2023-01-13T20:26:09.165Z,25.08
2023-01-13T20:32:02.271Z,13.25
2023-01-13T20:37:55.084Z,14.30
2023-01-13T20:43:50.197Z,11.40
2023-01-13T20:49:44.295Z,10.23
2023-01-13T20:55:40.043Z,12.80
2023-01-13T21:01:32.544Z,12.30
2023-01-13T21:07:25.653Z,12.80
2023-01-13T21:13:37.078Z,11.38
2023-01-13T21:19:30.347Z,11.75
2023-01-13T21:25:23.306Z,14.60
2023-01-13T21:31:17.616Z,11.35
2023-01-13T21:37:13.567Z,14.85
2023-01-13T21:43:31.815Z,10.13
2023-01-13T21:49:24.897Z,9.88
2023-01-13T21:55:20.589Z,6.97
2023-01-13T22:01:13.397Z,9.93
2023-01-13T22:07:06.864Z,10.60
2023-01-13T22:13:21.436Z,11.98
2023-01-13T22:19:14.295Z,12.98
2023-01-13T22:25:09.212Z,16.45
2023-01-13T22:31:02.360Z,18.35
2023-01-13T22:36:55.438Z,20.45
2023-01-13T22:42:48.396Z,12.88
2023-01-13T22:48:41.751Z,9.90
2023-01-13T22:54:34.400Z,6.85
2023-01-13T23:00:27.638Z,9.63
2023-01-13T23:06:22.114Z,11.40
2023-01-13T23:12:14.097Z,9.55
2023-01-13T23:18:06.597Z,9.57
2023-01-13T23:23:59.587Z,9.33
2023-01-13T23:29:54.735Z,5.95
2023-01-13T23:35:59.579Z,6.70
2023-01-13T23:41:52.522Z,5.00
2023-01-13T23:47:46.521Z,8.63
2023-01-13T23:53:41.063Z,10.23
2023-01-13T23:59:33.567Z,11.23
